BAW912N EGLL-EDDF
Flight info
| Callsign | BAW912N |
|---|---|
| Flight time | 1h 8m |
| Altitude | 35000 |
| Route | BPK Q295 MATCH DCT REDFA DCT TACHA DCT NOLRU DCT DIXAT DIXAT1A |
| Aircraft | A320/M-SDE3FGHIRWY/LB1 |
Departure
| Time | 2026-05-05 13:50 |
|---|---|
| Airport | London Heathrow Airport (EGLL) |
Arrival
| Time | 2026-05-05 14:58 |
|---|---|
| Airport | Frankfurt Main Airport (EDDF) |
| Time | Latitude | Longitude | Altitude | Speed | Heading |
|---|---|---|---|---|---|
| 2026-05-05 13:24 | 51.47271 | -0.48588 | 87 ft | 0 kts | 270° |
| 2026-05-05 13:40 | 51.47271 | -0.48565 | 90 ft | 2 kts | 270° |
| 2026-05-05 13:41 | 51.47271 | -0.48547 | 88 ft | 0 kts | 269° |
| 2026-05-05 13:41 | 51.47271 | -0.48535 | 89 ft | 2 kts | 270° |
| 2026-05-05 13:41 | 51.47271 | -0.48508 | 89 ft | 2 kts | 252° |
| 2026-05-05 13:41 | 51.47279 | -0.48486 | 91 ft | 2 kts | 206° |
| 2026-05-05 13:42 | 51.47295 | -0.48477 | 87 ft | 2 kts | 187° |
| 2026-05-05 13:42 | 51.47306 | -0.48476 | 87 ft | 1 kts | 181° |
| 2026-05-05 13:42 | 51.47307 | -0.48476 | 87 ft | 0 kts | 181° |
| 2026-05-05 13:43 | 51.47303 | -0.48476 | 87 ft | 2 kts | 181° |
| 2026-05-05 13:44 | 51.47275 | -0.48477 | 87 ft | 6 kts | 180° |
| 2026-05-05 13:44 | 51.47222 | -0.48476 | 87 ft | 10 kts | 180° |
| 2026-05-05 13:44 | 51.47143 | -0.48475 | 87 ft | 13 kts | 180° |
| 2026-05-05 13:44 | 51.47042 | -0.48474 | 87 ft | 15 kts | 179° |
| 2026-05-05 13:45 | 51.46935 | -0.48473 | 87 ft | 16 kts | 179° |
| 2026-05-05 13:45 | 51.46864 | -0.48473 | 87 ft | 10 kts | 180° |
| 2026-05-05 13:45 | 51.46792 | -0.48472 | 90 ft | 11 kts | 179° |
| 2026-05-05 13:45 | 51.46741 | -0.48538 | 89 ft | 11 kts | 269° |
| 2026-05-05 13:46 | 51.46741 | -0.48676 | 87 ft | 13 kts | 269° |
| 2026-05-05 13:46 | 51.46678 | -0.48752 | 87 ft | 14 kts | 181° |
| 2026-05-05 13:46 | 51.46603 | -0.48768 | 90 ft | 6 kts | 202° |
| 2026-05-05 13:46 | 51.46595 | -0.48773 | 89 ft | 0 kts | 201° |
| 2026-05-05 13:47 | 51.46594 | -0.48774 | 89 ft | 1 kts | 201° |
| 2026-05-05 13:47 | 51.46569 | -0.48787 | 89 ft | 6 kts | 194° |
| 2026-05-05 13:47 | 51.46517 | -0.48783 | 91 ft | 8 kts | 161° |
| 2026-05-05 13:48 | 51.46479 | -0.48712 | 90 ft | 9 kts | 111° |
| 2026-05-05 13:48 | 51.46477 | -0.48656 | 88 ft | 0 kts | 87° |
| 2026-05-05 13:49 | 51.46479 | -0.48379 | 89 ft | 60 kts | 90° |
| 2026-05-05 13:49 | 51.46480 | -0.47372 | 86 ft | 117 kts | 90° |
| 2026-05-05 13:49 | 51.46487 | -0.45828 | 90 ft | 158 kts | 89° |
| 2026-05-05 13:49 | 51.46483 | -0.44032 | 639 ft | 159 kts | 88° |
| 2026-05-05 13:50 | 51.46509 | -0.42275 | 1340 ft | 160 kts | 80° |
| 2026-05-05 13:50 | 51.46947 | -0.40586 | 1750 ft | 176 kts | 49° |
| 2026-05-05 13:50 | 51.47794 | -0.39004 | 2002 ft | 200 kts | 48° |
| 2026-05-05 13:50 | 51.48748 | -0.37203 | 2408 ft | 225 kts | 49° |
| 2026-05-05 13:51 | 51.49791 | -0.35215 | 2914 ft | 245 kts | 49° |
| 2026-05-05 13:51 | 51.50910 | -0.33068 | 3810 ft | 251 kts | 50° |
| 2026-05-05 13:51 | 51.51991 | -0.30895 | 4728 ft | 255 kts | 57° |
| 2026-05-05 13:51 | 51.52699 | -0.28212 | 5590 ft | 261 kts | 70° |
| 2026-05-05 13:52 | 51.53289 | -0.25424 | 6478 ft | 267 kts | 71° |
| 2026-05-05 13:52 | 51.53878 | -0.22613 | 7272 ft | 272 kts | 70° |
| 2026-05-05 13:52 | 51.54711 | -0.19880 | 8034 ft | 277 kts | 50° |
| 2026-05-05 13:52 | 51.55983 | -0.17533 | 8845 ft | 281 kts | 49° |
| 2026-05-05 13:53 | 51.57250 | -0.15114 | 9662 ft | 285 kts | 50° |
| 2026-05-05 13:53 | 51.58531 | -0.12613 | 10258 ft | 297 kts | 50° |
| 2026-05-05 13:53 | 51.59886 | -0.09963 | 10483 ft | 320 kts | 50° |
| 2026-05-05 13:53 | 51.61363 | -0.07085 | 10658 ft | 344 kts | 50° |
| 2026-05-05 13:54 | 51.62922 | -0.04060 | 11041 ft | 356 kts | 50° |
| 2026-05-05 13:54 | 51.64519 | -0.00972 | 11666 ft | 361 kts | 50° |
| 2026-05-05 13:54 | 51.66133 | 0.02136 | 12331 ft | 364 kts | 50° |
| 2026-05-05 13:54 | 51.67767 | 0.05282 | 12998 ft | 368 kts | 50° |
| 2026-05-05 13:55 | 51.69425 | 0.08480 | 13684 ft | 371 kts | 50° |
| 2026-05-05 13:55 | 51.71088 | 0.11696 | 14285 ft | 375 kts | 50° |
| 2026-05-05 13:55 | 51.72762 | 0.14944 | 14848 ft | 379 kts | 50° |
| 2026-05-05 13:55 | 51.74452 | 0.18230 | 15398 ft | 382 kts | 50° |
| 2026-05-05 13:56 | 51.76148 | 0.21559 | 15946 ft | 386 kts | 52° |
| 2026-05-05 13:56 | 51.77592 | 0.25230 | 16481 ft | 389 kts | 63° |
| 2026-05-05 13:56 | 51.78595 | 0.29247 | 17034 ft | 393 kts | 73° |
| 2026-05-05 13:56 | 51.79298 | 0.33584 | 17598 ft | 396 kts | 76° |
| 2026-05-05 13:57 | 51.79986 | 0.37907 | 18164 ft | 399 kts | 76° |
| 2026-05-05 13:57 | 51.80683 | 0.42275 | 18671 ft | 403 kts | 76° |
| 2026-05-05 13:57 | 51.81382 | 0.46674 | 19185 ft | 406 kts | 76° |
| 2026-05-05 13:57 | 51.82075 | 0.51047 | 19687 ft | 409 kts | 76° |
| 2026-05-05 13:58 | 51.82781 | 0.55511 | 20192 ft | 412 kts | 76° |
| 2026-05-05 13:58 | 51.83492 | 0.60018 | 20673 ft | 415 kts | 76° |
| 2026-05-05 13:58 | 51.84205 | 0.64559 | 21143 ft | 418 kts | 77° |
| 2026-05-05 13:58 | 51.84922 | 0.69139 | 21605 ft | 421 kts | 77° |
| 2026-05-05 13:59 | 51.86365 | 0.78380 | 22502 ft | 427 kts | 77° |
| 2026-05-05 13:59 | 51.87093 | 0.83055 | 22947 ft | 429 kts | 77° |
| 2026-05-05 14:00 | 51.88552 | 0.92477 | 23766 ft | 434 kts | 77° |
| 2026-05-05 14:00 | 51.89046 | 0.95690 | 24007 ft | 436 kts | 77° |
| 2026-05-05 14:00 | 51.90017 | 1.02030 | 24469 ft | 439 kts | 77° |
| 2026-05-05 14:00 | 51.90751 | 1.06836 | 24817 ft | 442 kts | 78° |
| 2026-05-05 14:01 | 51.91240 | 1.10047 | 25043 ft | 444 kts | 78° |
| 2026-05-05 14:01 | 51.91977 | 1.14910 | 25383 ft | 446 kts | 78° |
| 2026-05-05 14:01 | 51.92716 | 1.19806 | 25738 ft | 449 kts | 78° |
| 2026-05-05 14:01 | 51.93458 | 1.24724 | 26107 ft | 451 kts | 78° |
| 2026-05-05 14:02 | 51.94456 | 1.31353 | 26577 ft | 455 kts | 78° |
| 2026-05-05 14:02 | 51.94954 | 1.34665 | 26790 ft | 456 kts | 78° |
| 2026-05-05 14:02 | 51.95705 | 1.39670 | 27133 ft | 459 kts | 78° |
| 2026-05-05 14:02 | 51.96459 | 1.44703 | 27509 ft | 460 kts | 78° |
| 2026-05-05 14:03 | 51.97211 | 1.49742 | 27996 ft | 459 kts | 78° |
| 2026-05-05 14:03 | 51.97960 | 1.54780 | 28478 ft | 458 kts | 78° |
| 2026-05-05 14:03 | 51.98705 | 1.59804 | 28958 ft | 458 kts | 78° |
| 2026-05-05 14:03 | 51.99447 | 1.64817 | 29425 ft | 457 kts | 78° |
| 2026-05-05 14:04 | 52.00187 | 1.69839 | 29907 ft | 457 kts | 78° |
| 2026-05-05 14:04 | 52.00920 | 1.74844 | 30331 ft | 456 kts | 78° |
| 2026-05-05 14:04 | 52.01649 | 1.79859 | 30733 ft | 456 kts | 78° |
| 2026-05-05 14:04 | 52.02378 | 1.84877 | 31128 ft | 457 kts | 78° |
| 2026-05-05 14:05 | 52.03103 | 1.89892 | 31534 ft | 457 kts | 78° |
| 2026-05-05 14:05 | 52.03827 | 1.94912 | 31929 ft | 457 kts | 78° |
| 2026-05-05 14:05 | 52.04540 | 1.99869 | 32327 ft | 457 kts | 78° |
| 2026-05-05 14:05 | 52.05262 | 2.04888 | 32723 ft | 457 kts | 78° |
| 2026-05-05 14:06 | 52.05984 | 2.09927 | 33124 ft | 457 kts | 78° |
| 2026-05-05 14:06 | 52.06702 | 2.14952 | 33529 ft | 457 kts | 78° |
| 2026-05-05 14:06 | 52.07418 | 2.19986 | 33928 ft | 457 kts | 78° |
| 2026-05-05 14:06 | 52.08131 | 2.25022 | 34273 ft | 457 kts | 78° |
| 2026-05-05 14:07 | 52.08841 | 2.30062 | 34623 ft | 457 kts | 78° |
| 2026-05-05 14:07 | 52.09546 | 2.35088 | 34898 ft | 457 kts | 78° |
| 2026-05-05 14:07 | 52.10964 | 2.45255 | 34970 ft | 465 kts | 79° |
| 2026-05-05 14:08 | 52.12558 | 2.55494 | 34970 ft | 468 kts | 75° |
| 2026-05-05 14:08 | 52.14540 | 2.65594 | 34969 ft | 469 kts | 73° |
| 2026-05-05 14:09 | 52.16605 | 2.75766 | 34965 ft | 480 kts | 73° |
| 2026-05-05 14:09 | 52.18614 | 2.86236 | 34965 ft | 486 kts | 74° |
| 2026-05-05 14:10 | 52.20566 | 2.96796 | 34965 ft | 487 kts | 75° |
| 2026-05-05 14:10 | 52.22519 | 3.07393 | 34960 ft | 488 kts | 74° |
| 2026-05-05 14:11 | 52.24237 | 3.18066 | 34961 ft | 485 kts | 84° |
| 2026-05-05 14:11 | 52.24075 | 3.28932 | 34956 ft | 480 kts | 103° |
| 2026-05-05 14:12 | 52.22005 | 3.39217 | 34957 ft | 476 kts | 114° |
| 2026-05-05 14:12 | 52.19598 | 3.49261 | 34954 ft | 475 kts | 114° |
| 2026-05-05 14:13 | 52.17196 | 3.59292 | 34950 ft | 474 kts | 114° |
| 2026-05-05 14:13 | 52.14806 | 3.69216 | 34943 ft | 474 kts | 114° |
| 2026-05-05 14:14 | 52.12387 | 3.79179 | 34943 ft | 473 kts | 115° |
| 2026-05-05 14:14 | 52.09980 | 3.89021 | 34941 ft | 473 kts | 115° |
| 2026-05-05 14:15 | 52.07547 | 3.98945 | 34937 ft | 472 kts | 115° |
| 2026-05-05 14:15 | 52.05108 | 4.08859 | 34929 ft | 472 kts | 115° |
| 2026-05-05 14:16 | 52.02664 | 4.18744 | 34921 ft | 471 kts | 116° |
| 2026-05-05 14:16 | 52.00214 | 4.28613 | 34921 ft | 471 kts | 116° |
| 2026-05-05 14:17 | 51.97760 | 4.38464 | 34919 ft | 471 kts | 116° |
| 2026-05-05 14:17 | 51.95297 | 4.48305 | 34918 ft | 471 kts | 116° |
| 2026-05-05 14:18 | 51.92820 | 4.58113 | 34918 ft | 471 kts | 116° |
| 2026-05-05 14:18 | 51.90342 | 4.67887 | 34916 ft | 471 kts | 116° |
| 2026-05-05 14:19 | 51.87859 | 4.77683 | 34906 ft | 470 kts | 116° |
| 2026-05-05 14:19 | 51.85388 | 4.87394 | 34923 ft | 470 kts | 116° |
| 2026-05-05 14:20 | 51.82891 | 4.97166 | 34910 ft | 470 kts | 116° |
| 2026-05-05 14:20 | 51.80375 | 5.06915 | 34913 ft | 470 kts | 117° |
| 2026-05-05 14:21 | 51.77855 | 5.16660 | 34904 ft | 470 kts | 117° |
| 2026-05-05 14:21 | 51.75330 | 5.26404 | 34900 ft | 471 kts | 117° |
| 2026-05-05 14:22 | 51.72794 | 5.36149 | 34896 ft | 471 kts | 117° |
| 2026-05-05 14:22 | 51.70243 | 5.45882 | 34918 ft | 471 kts | 117° |
| 2026-05-05 14:23 | 51.67686 | 5.55614 | 34918 ft | 471 kts | 117° |
| 2026-05-05 14:23 | 51.65123 | 5.65335 | 34921 ft | 471 kts | 117° |
| 2026-05-05 14:24 | 51.62548 | 5.75023 | 34923 ft | 471 kts | 117° |
| 2026-05-05 14:24 | 51.60019 | 5.84547 | 34923 ft | 471 kts | 117° |
| 2026-05-05 14:25 | 51.57431 | 5.94233 | 34901 ft | 470 kts | 117° |
| 2026-05-05 14:25 | 51.54834 | 6.03886 | 34900 ft | 470 kts | 117° |
| 2026-05-05 14:26 | 51.52237 | 6.13520 | 34898 ft | 471 kts | 117° |
| 2026-05-05 14:26 | 51.49632 | 6.23170 | 34892 ft | 471 kts | 117° |
| 2026-05-05 14:27 | 51.47183 | 6.32947 | 34888 ft | 473 kts | 115° |
| 2026-05-05 14:27 | 51.44836 | 6.42824 | 34886 ft | 474 kts | 115° |
| 2026-05-05 14:28 | 51.42454 | 6.52668 | 34888 ft | 474 kts | 116° |
| 2026-05-05 14:28 | 51.40013 | 6.62469 | 34867 ft | 473 kts | 116° |
| 2026-05-05 14:29 | 51.37566 | 6.72256 | 34869 ft | 474 kts | 116° |
| 2026-05-05 14:29 | 51.35149 | 6.81920 | 34863 ft | 459 kts | 117° |
| 2026-05-05 14:30 | 51.32788 | 6.91323 | 34472 ft | 455 kts | 117° |
| 2026-05-05 14:30 | 51.31604 | 6.96016 | 33892 ft | 454 kts | 117° |
| 2026-05-05 14:30 | 51.30424 | 7.00685 | 33225 ft | 453 kts | 117° |
| 2026-05-05 14:31 | 51.29235 | 7.05346 | 32574 ft | 452 kts | 119° |
| 2026-05-05 14:31 | 51.27761 | 7.09734 | 31936 ft | 447 kts | 128° |
| 2026-05-05 14:31 | 51.25861 | 7.13627 | 31305 ft | 443 kts | 137° |
| 2026-05-05 14:31 | 51.23603 | 7.16942 | 30703 ft | 440 kts | 146° |
| 2026-05-05 14:32 | 51.21042 | 7.19606 | 30107 ft | 439 kts | 155° |
| 2026-05-05 14:32 | 51.18304 | 7.21785 | 29454 ft | 442 kts | 156° |
| 2026-05-05 14:32 | 51.15543 | 7.23959 | 28762 ft | 444 kts | 156° |
| 2026-05-05 14:32 | 51.12807 | 7.26114 | 28111 ft | 446 kts | 156° |
| 2026-05-05 14:33 | 51.09992 | 7.28349 | 27455 ft | 447 kts | 155° |
| 2026-05-05 14:33 | 51.07223 | 7.30601 | 26822 ft | 449 kts | 155° |
| 2026-05-05 14:33 | 51.04441 | 7.32906 | 26192 ft | 451 kts | 154° |
| 2026-05-05 14:33 | 51.01660 | 7.35228 | 25600 ft | 451 kts | 154° |
| 2026-05-05 14:34 | 50.98887 | 7.37544 | 25005 ft | 449 kts | 154° |
| 2026-05-05 14:34 | 50.96133 | 7.39832 | 24434 ft | 445 kts | 154° |
| 2026-05-05 14:34 | 50.93432 | 7.42062 | 23874 ft | 442 kts | 154° |
| 2026-05-05 14:34 | 50.90672 | 7.44331 | 23295 ft | 439 kts | 154° |
| 2026-05-05 14:35 | 50.88046 | 7.46479 | 22847 ft | 437 kts | 154° |
| 2026-05-05 14:35 | 50.85343 | 7.48679 | 22224 ft | 436 kts | 154° |
| 2026-05-05 14:35 | 50.82664 | 7.50856 | 21454 ft | 431 kts | 154° |
| 2026-05-05 14:35 | 50.80014 | 7.53018 | 20714 ft | 426 kts | 154° |
| 2026-05-05 14:36 | 50.77387 | 7.55161 | 19983 ft | 422 kts | 154° |
| 2026-05-05 14:36 | 50.74812 | 7.57258 | 19257 ft | 419 kts | 153° |
| 2026-05-05 14:36 | 50.72237 | 7.59356 | 18535 ft | 415 kts | 153° |
| 2026-05-05 14:36 | 50.69678 | 7.61436 | 17773 ft | 412 kts | 153° |
| 2026-05-05 14:37 | 50.67151 | 7.63487 | 17281 ft | 407 kts | 153° |
| 2026-05-05 14:37 | 50.64636 | 7.65524 | 16792 ft | 405 kts | 153° |
| 2026-05-05 14:37 | 50.62134 | 7.67545 | 16295 ft | 403 kts | 153° |
| 2026-05-05 14:37 | 50.59649 | 7.69551 | 15807 ft | 400 kts | 154° |
| 2026-05-05 14:38 | 50.57181 | 7.71535 | 15353 ft | 397 kts | 154° |
| 2026-05-05 14:38 | 50.54728 | 7.73504 | 14904 ft | 395 kts | 154° |
| 2026-05-05 14:38 | 50.52285 | 7.75462 | 14452 ft | 393 kts | 154° |
| 2026-05-05 14:38 | 50.49912 | 7.77368 | 14019 ft | 390 kts | 153° |
| 2026-05-05 14:39 | 50.47499 | 7.79313 | 13567 ft | 388 kts | 153° |
| 2026-05-05 14:39 | 50.45072 | 7.81262 | 13090 ft | 385 kts | 153° |
| 2026-05-05 14:39 | 50.42781 | 7.83420 | 12601 ft | 384 kts | 145° |
| 2026-05-05 14:39 | 50.40695 | 7.85947 | 11901 ft | 381 kts | 142° |
| 2026-05-05 14:40 | 50.38657 | 7.88479 | 11558 ft | 368 kts | 142° |
| 2026-05-05 14:40 | 50.36680 | 7.90954 | 11099 ft | 360 kts | 142° |
| 2026-05-05 14:40 | 50.34723 | 7.93405 | 10726 ft | 349 kts | 142° |
| 2026-05-05 14:40 | 50.32926 | 7.95644 | 10606 ft | 321 kts | 142° |
| 2026-05-05 14:41 | 50.31218 | 7.97761 | 10437 ft | 299 kts | 142° |
| 2026-05-05 14:41 | 50.29635 | 7.99715 | 10054 ft | 291 kts | 142° |
| 2026-05-05 14:41 | 50.28058 | 8.01660 | 9853 ft | 285 kts | 142° |
| 2026-05-05 14:41 | 50.26538 | 8.03619 | 9790 ft | 284 kts | 136° |
| 2026-05-05 14:42 | 50.25246 | 8.06012 | 9718 ft | 285 kts | 128° |
| 2026-05-05 14:42 | 50.24070 | 8.08407 | 9609 ft | 284 kts | 129° |
| 2026-05-05 14:42 | 50.22867 | 8.10853 | 9502 ft | 284 kts | 129° |
| 2026-05-05 14:42 | 50.21677 | 8.13262 | 9380 ft | 283 kts | 129° |
| 2026-05-05 14:43 | 50.20459 | 8.15724 | 9260 ft | 283 kts | 129° |
| 2026-05-05 14:43 | 50.19360 | 8.17946 | 9167 ft | 282 kts | 129° |
| 2026-05-05 14:43 | 50.18178 | 8.20339 | 9050 ft | 282 kts | 129° |
| 2026-05-05 14:43 | 50.16985 | 8.22759 | 8930 ft | 281 kts | 129° |
| 2026-05-05 14:44 | 50.15793 | 8.25171 | 8818 ft | 281 kts | 129° |
| 2026-05-05 14:44 | 50.14583 | 8.27611 | 8710 ft | 281 kts | 129° |
| 2026-05-05 14:44 | 50.13388 | 8.30014 | 8598 ft | 280 kts | 129° |
| 2026-05-05 14:44 | 50.12199 | 8.32413 | 8478 ft | 279 kts | 129° |
| 2026-05-05 14:45 | 50.11114 | 8.34913 | 8361 ft | 280 kts | 117° |
| 2026-05-05 14:45 | 50.10537 | 8.37814 | 8248 ft | 283 kts | 99° |
| 2026-05-05 14:45 | 50.10578 | 8.40877 | 8121 ft | 285 kts | 80° |
| 2026-05-05 14:45 | 50.11182 | 8.43818 | 8010 ft | 286 kts | 71° |
| 2026-05-05 14:46 | 50.11885 | 8.46712 | 7872 ft | 285 kts | 71° |
| 2026-05-05 14:46 | 50.12584 | 8.49608 | 7757 ft | 286 kts | 71° |
| 2026-05-05 14:46 | 50.13278 | 8.52508 | 7637 ft | 285 kts | 71° |
| 2026-05-05 14:46 | 50.13968 | 8.55401 | 7520 ft | 285 kts | 71° |
| 2026-05-05 14:47 | 50.14655 | 8.58287 | 7402 ft | 284 kts | 71° |
| 2026-05-05 14:47 | 50.15339 | 8.61171 | 7282 ft | 284 kts | 71° |
| 2026-05-05 14:47 | 50.15793 | 8.63085 | 7198 ft | 283 kts | 71° |
| 2026-05-05 14:47 | 50.16473 | 8.65958 | 7089 ft | 283 kts | 71° |
| 2026-05-05 14:48 | 50.17150 | 8.68811 | 6981 ft | 276 kts | 71° |
| 2026-05-05 14:48 | 50.17816 | 8.71598 | 6857 ft | 272 kts | 71° |
| 2026-05-05 14:48 | 50.18464 | 8.74333 | 6748 ft | 265 kts | 71° |
| 2026-05-05 14:48 | 50.19091 | 8.76993 | 6646 ft | 257 kts | 71° |
| 2026-05-05 14:49 | 50.19890 | 8.80398 | 6510 ft | 249 kts | 71° |
| 2026-05-05 14:49 | 50.20293 | 8.82109 | 6445 ft | 248 kts | 71° |
| 2026-05-05 14:49 | 50.20889 | 8.84637 | 6341 ft | 248 kts | 71° |
| 2026-05-05 14:49 | 50.21483 | 8.87159 | 6255 ft | 247 kts | 71° |
| 2026-05-05 14:50 | 50.21979 | 8.89721 | 6088 ft | 246 kts | 85° |
| 2026-05-05 14:50 | 50.21829 | 8.92277 | 5987 ft | 230 kts | 110° |
| 2026-05-05 14:50 | 50.21075 | 8.94362 | 5943 ft | 218 kts | 134° |
| 2026-05-05 14:50 | 50.19878 | 8.95765 | 5886 ft | 215 kts | 158° |
| 2026-05-05 14:51 | 50.18446 | 8.96311 | 5837 ft | 212 kts | 179° |
| 2026-05-05 14:51 | 50.16973 | 8.96190 | 5784 ft | 212 kts | 192° |
| 2026-05-05 14:51 | 50.15599 | 8.95396 | 5741 ft | 211 kts | 211° |
| 2026-05-05 14:51 | 50.14469 | 8.93927 | 5723 ft | 213 kts | 230° |
| 2026-05-05 14:52 | 50.13712 | 8.91954 | 5674 ft | 214 kts | 247° |
| 2026-05-05 14:52 | 50.13198 | 8.89779 | 5498 ft | 216 kts | 249° |
| 2026-05-05 14:52 | 50.12679 | 8.87559 | 5248 ft | 224 kts | 248° |
| 2026-05-05 14:52 | 50.12119 | 8.85176 | 4901 ft | 243 kts | 247° |
| 2026-05-05 14:53 | 50.11533 | 8.82685 | 4534 ft | 242 kts | 249° |
| 2026-05-05 14:53 | 50.10971 | 8.80294 | 4218 ft | 229 kts | 248° |
| 2026-05-05 14:53 | 50.10432 | 8.78012 | 3888 ft | 222 kts | 248° |
| 2026-05-05 14:53 | 50.09914 | 8.75817 | 3588 ft | 210 kts | 249° |
| 2026-05-05 14:54 | 50.09422 | 8.73739 | 3300 ft | 199 kts | 249° |
| 2026-05-05 14:54 | 50.08959 | 8.71784 | 3057 ft | 186 kts | 249° |
| 2026-05-05 14:54 | 50.08523 | 8.69940 | 2777 ft | 177 kts | 248° |
| 2026-05-05 14:54 | 50.08111 | 8.68203 | 2541 ft | 164 kts | 249° |
| 2026-05-05 14:55 | 50.07741 | 8.66644 | 2312 ft | 146 kts | 248° |
| 2026-05-05 14:55 | 50.07401 | 8.65211 | 2109 ft | 138 kts | 249° |
| 2026-05-05 14:55 | 50.07071 | 8.63825 | 1914 ft | 135 kts | 249° |
| 2026-05-05 14:55 | 50.06744 | 8.62448 | 1730 ft | 134 kts | 247° |
| 2026-05-05 14:56 | 50.06419 | 8.61084 | 1536 ft | 135 kts | 248° |
| 2026-05-05 14:56 | 50.06095 | 8.59722 | 1336 ft | 134 kts | 249° |
| 2026-05-05 14:56 | 50.05774 | 8.58375 | 1128 ft | 134 kts | 247° |
| 2026-05-05 14:56 | 50.05485 | 8.57164 | 950 ft | 134 kts | 248° |
| 2026-05-05 14:57 | 50.05208 | 8.56000 | 775 ft | 133 kts | 249° |
| 2026-05-05 14:57 | 50.04887 | 8.54646 | 584 ft | 136 kts | 249° |
| 2026-05-05 14:57 | 50.04561 | 8.53292 | 422 ft | 133 kts | 248° |
| 2026-05-05 14:57 | 50.04256 | 8.52005 | 338 ft | 111 kts | 250° |
| 2026-05-05 14:58 | 50.04045 | 8.51129 | 326 ft | 62 kts | 250° |
| 2026-05-05 14:58 | 50.03927 | 8.50634 | 324 ft | 44 kts | 250° |
| 2026-05-05 14:58 | 50.03768 | 8.50285 | 319 ft | 36 kts | 220° |
| 2026-05-05 14:58 | 50.03690 | 8.50189 | 320 ft | 6 kts | 206° |
| 2026-05-05 14:59 | 50.03669 | 8.50182 | 322 ft | 0 kts | 187° |
| 2026-05-05 14:59 | 50.03668 | 8.50182 | 322 ft | 0 kts | 187° |
| 2026-05-05 14:59 | 50.03663 | 8.50181 | 322 ft | 2 kts | 184° |
| 2026-05-05 14:59 | 50.03645 | 8.50193 | 323 ft | 0 kts | 146° |
| 2026-05-05 15:00 | 50.03634 | 8.50214 | 322 ft | 6 kts | 121° |
| 2026-05-05 15:00 | 50.03626 | 8.50275 | 325 ft | 9 kts | 83° |
| 2026-05-05 15:00 | 50.03656 | 8.50391 | 326 ft | 9 kts | 65° |
| 2026-05-05 15:00 | 50.03677 | 8.50477 | 327 ft | 8 kts | 70° |
| 2026-05-05 15:01 | 50.03695 | 8.50564 | 326 ft | 9 kts | 73° |
| 2026-05-05 15:01 | 50.03715 | 8.50652 | 329 ft | 9 kts | 67° |
| 2026-05-05 15:01 | 50.03739 | 8.50740 | 330 ft | 9 kts | 69° |
| 2026-05-05 15:01 | 50.03759 | 8.50835 | 332 ft | 10 kts | 71° |
| 2026-05-05 15:02 | 50.03786 | 8.50946 | 332 ft | 12 kts | 70° |
| 2026-05-05 15:02 | 50.03819 | 8.51084 | 334 ft | 14 kts | 69° |
| 2026-05-05 15:02 | 50.03851 | 8.51220 | 334 ft | 13 kts | 71° |
| 2026-05-05 15:02 | 50.03881 | 8.51353 | 331 ft | 13 kts | 65° |
| 2026-05-05 15:03 | 50.03917 | 8.51475 | 332 ft | 12 kts | 65° |
| 2026-05-05 15:03 | 50.03943 | 8.51589 | 334 ft | 10 kts | 76° |
| 2026-05-05 15:03 | 50.03963 | 8.51689 | 334 ft | 10 kts | 71° |
| 2026-05-05 15:03 | 50.03991 | 8.51808 | 335 ft | 13 kts | 68° |
| 2026-05-05 15:04 | 50.04024 | 8.51941 | 333 ft | 14 kts | 70° |
| 2026-05-05 15:04 | 50.04059 | 8.52084 | 340 ft | 14 kts | 69° |
| 2026-05-05 15:04 | 50.04094 | 8.52232 | 349 ft | 15 kts | 70° |
| 2026-05-05 15:04 | 50.04129 | 8.52381 | 348 ft | 15 kts | 69° |
| 2026-05-05 15:05 | 50.04201 | 8.52679 | 355 ft | 15 kts | 68° |
| 2026-05-05 15:05 | 50.04237 | 8.52829 | 353 ft | 15 kts | 70° |
| 2026-05-05 15:05 | 50.04273 | 8.52979 | 362 ft | 15 kts | 70° |
| 2026-05-05 15:06 | 50.04308 | 8.53129 | 358 ft | 14 kts | 71° |
| 2026-05-05 15:06 | 50.04335 | 8.53243 | 365 ft | 9 kts | 69° |
| 2026-05-05 15:06 | 50.04354 | 8.53318 | 367 ft | 8 kts | 68° |
| 2026-05-05 15:06 | 50.04374 | 8.53405 | 373 ft | 9 kts | 70° |
| 2026-05-05 15:07 | 50.04394 | 8.53500 | 375 ft | 8 kts | 79° |
| 2026-05-05 15:07 | 50.04400 | 8.53593 | 375 ft | 10 kts | 86° |
| 2026-05-05 15:07 | 50.04409 | 8.53722 | 375 ft | 14 kts | 84° |
| 2026-05-05 15:07 | 50.04419 | 8.53883 | 375 ft | 14 kts | 85° |
| 2026-05-05 15:08 | 50.04428 | 8.54015 | 375 ft | 11 kts | 84° |
| 2026-05-05 15:08 | 50.04436 | 8.54135 | 375 ft | 14 kts | 84° |
| 2026-05-05 15:08 | 50.04448 | 8.54317 | 374 ft | 19 kts | 83° |
| 2026-05-05 15:08 | 50.04443 | 8.54540 | 372 ft | 23 kts | 104° |
| 2026-05-05 15:09 | 50.04341 | 8.54742 | 359 ft | 20 kts | 147° |
| 2026-05-05 15:09 | 50.04299 | 8.54782 | 357 ft | 6 kts | 151° |
| 2026-05-05 15:09 | 50.04246 | 8.54818 | 357 ft | 11 kts | 163° |
| 2026-05-05 15:09 | 50.04162 | 8.54856 | 360 ft | 14 kts | 162° |
| 2026-05-05 15:10 | 50.04072 | 8.54908 | 356 ft | 12 kts | 158° |
| 2026-05-05 15:10 | 50.04002 | 8.54950 | 357 ft | 10 kts | 159° |
| 2026-05-05 15:10 | 50.03934 | 8.54991 | 353 ft | 12 kts | 159° |
| 2026-05-05 15:10 | 50.03856 | 8.55053 | 356 ft | 13 kts | 126° |
| 2026-05-05 15:11 | 50.03864 | 8.55183 | 351 ft | 12 kts | 66° |
| 2026-05-05 15:11 | 50.03894 | 8.55300 | 349 ft | 12 kts | 70° |
| 2026-05-05 15:11 | 50.03921 | 8.55419 | 352 ft | 12 kts | 70° |
| 2026-05-05 15:11 | 50.03950 | 8.55542 | 351 ft | 13 kts | 70° |
| 2026-05-05 15:12 | 50.03982 | 8.55676 | 358 ft | 13 kts | 69° |
| 2026-05-05 15:12 | 50.04015 | 8.55806 | 354 ft | 13 kts | 68° |
| 2026-05-05 15:12 | 50.04044 | 8.55931 | 353 ft | 12 kts | 72° |
| 2026-05-05 15:12 | 50.04069 | 8.56047 | 359 ft | 11 kts | 71° |
| 2026-05-05 15:13 | 50.04097 | 8.56153 | 357 ft | 10 kts | 67° |
| 2026-05-05 15:13 | 50.04120 | 8.56251 | 356 ft | 10 kts | 71° |
| 2026-05-05 15:13 | 50.04147 | 8.56365 | 358 ft | 12 kts | 69° |
| 2026-05-05 15:13 | 50.04179 | 8.56495 | 356 ft | 14 kts | 70° |
| 2026-05-05 15:14 | 50.04213 | 8.56641 | 361 ft | 15 kts | 69° |
| 2026-05-05 15:14 | 50.04245 | 8.56777 | 362 ft | 16 kts | 70° |
| 2026-05-05 15:14 | 50.04286 | 8.56946 | 362 ft | 18 kts | 69° |
| 2026-05-05 15:14 | 50.04333 | 8.57143 | 363 ft | 20 kts | 69° |
| 2026-05-05 15:15 | 50.04386 | 8.57367 | 364 ft | 24 kts | 69° |
| 2026-05-05 15:15 | 50.04444 | 8.57606 | 370 ft | 22 kts | 69° |
| 2026-05-05 15:15 | 50.04495 | 8.57831 | 366 ft | 22 kts | 67° |
| 2026-05-05 15:15 | 50.04551 | 8.58055 | 364 ft | 23 kts | 70° |
| 2026-05-05 15:16 | 50.04605 | 8.58281 | 370 ft | 21 kts | 70° |
| 2026-05-05 15:16 | 50.04651 | 8.58479 | 370 ft | 16 kts | 68° |
| 2026-05-05 15:16 | 50.04685 | 8.58620 | 369 ft | 12 kts | 69° |
| 2026-05-05 15:16 | 50.04711 | 8.58718 | 369 ft | 8 kts | 67° |
| 2026-05-05 15:17 | 50.04732 | 8.58789 | 372 ft | 8 kts | 67° |
| 2026-05-05 15:17 | 50.04751 | 8.58870 | 370 ft | 8 kts | 72° |
| 2026-05-05 15:17 | 50.04768 | 8.58941 | 370 ft | 6 kts | 65° |
| 2026-05-05 15:17 | 50.04800 | 8.58932 | 367 ft | 7 kts | 337° |
| 2026-05-05 15:18 | 50.04845 | 8.58904 | 368 ft | 4 kts | 339° |
| 2026-05-05 15:18 | 50.04850 | 8.58902 | 367 ft | 0 kts | 339° |
| 2026-05-05 15:22 | 50.04850 | 8.58901 | 367 ft | 0 kts | 339° |
| 2026-05-05 15:22 | 50.04850 | 8.58902 | 365 ft | 0 kts | 339° |
| 2026-05-05 15:22 | 50.04850 | 8.58901 | 365 ft | 0 kts | 339° |
| 2026-05-05 15:23 | 50.04850 | 8.58902 | 365 ft | 0 kts | 339° |
| 2026-05-05 15:36 | 50.04850 | 8.58901 | 365 ft | 0 kts | 339° |
| 2026-05-05 15:39 | 50.04850 | 8.58902 | 365 ft | 0 kts | 339° |